Bloomington, Idaho
Current Conditions -  °F | °C
As of 3:51 PM on Sunday 21 Dec 2014 (Local Time) from KLGU Reporting Station
Light Rain Light Rain  
Wind Chill: 41°   Ceiling: 2700
Heat Index: 46°   Visibility: 10mi
Dew Point: 41°   Wind: 9mph
Humidity: 83%   Direction: 290°WNW
Pressure: 29.88"   Gusts: NA
Location:  42.19°N, 111.4°W
Report Text: KLGU 212251Z AUTO 29008KT 10SM -RA OVC027 08/05 A2988 RMK AO2 RAB07 SLP109 P0001 T00780050
Loading
Personal Weather Stations






























Interactive Weather Map New forecast layout! Learn more

10-Day Weather Forecast

Advertisements
Track Severe Weather on mobile